Time;durP1;ratioP1;P1;durP2;ratioP2;P2;SDS_P1;SDS_P2;PMS_P1;PMS_P2;Temp;Humidity;BMP_temperature;BMP_pressure;BME280_temperature;BME280_humidity;BME280_pressure;Samples;Min_cycle;Max_cycle;Signal;HPM_P1;HPM_P2
2024/03/04 00:00:16;;;;;;;12.68;7.63;;;0.70;99.90;;;;;;5065757;28;20073;-91
2024/03/04 00:02:43;;;;;;;16.70;7.00;;;0.70;99.90;;;;;;5070199;28;20024;-91
2024/03/04 00:05:09;;;;;;;16.63;7.07;;;0.70;99.90;;;;;;5075186;28;20036;-90
2024/03/04 00:07:35;;;;;;;13.25;6.53;;;0.70;99.90;;;;;;5075587;28;20024;-91
2024/03/04 00:10:02;;;;;;;12.82;6.63;;;0.70;99.90;;;;;;5075693;28;20090;-90
2024/03/04 00:12:28;;;;;;;11.52;7.22;;;0.70;99.90;;;;;;5074347;28;20374;-90
2024/03/04 00:14:54;;;;;;;14.70;7.03;;;0.60;99.90;;;;;;5076696;28;20119;-92
2024/03/04 00:17:20;;;;;;;11.75;7.60;;;0.60;99.90;;;;;;5074219;28;20048;-92
2024/03/04 00:19:46;;;;;;;12.52;6.53;;;0.60;99.90;;;;;;5075288;28;20108;-90
2024/03/04 00:22:13;;;;;;;12.13;6.68;;;0.50;99.90;;;;;;5074275;28;20052;-90
2024/03/04 00:24:40;;;;;;;15.25;6.57;;;0.50;99.90;;;;;;5074340;28;20423;-90
2024/03/04 00:27:05;;;;;;;16.50;8.07;;;0.50;99.90;;;;;;5073824;28;20028;-91
2024/03/04 00:29:31;;;;;;;15.77;7.72;;;0.40;99.90;;;;;;5074523;28;20040;-90
2024/03/04 00:31:56;;;;;;;14.45;7.43;;;0.40;99.90;;;;;;5073971;28;20406;-91
2024/03/04 00:34:23;;;;;;;15.68;8.23;;;0.40;99.90;;;;;;5075899;28;20032;-90
2024/03/04 00:36:48;;;;;;;16.85;8.43;;;0.40;99.90;;;;;;5084607;28;20497;-91
2024/03/04 00:39:14;;;;;;;18.42;8.38;;;0.30;99.90;;;;;;5074248;28;20098;-92
2024/03/04 00:41:40;;;;;;;17.70;8.13;;;0.30;99.90;;;;;;5073297;28;20036;-91
2024/03/04 00:44:05;;;;;;;17.08;7.45;;;0.30;99.90;;;;;;5073812;28;20020;-91
2024/03/04 00:46:31;;;;;;;12.57;7.18;;;0.30;99.90;;;;;;5074878;28;20077;-91
2024/03/04 00:48:57;;;;;;;13.05;7.45;;;0.30;99.90;;;;;;5073438;28;20067;-91
2024/03/04 00:51:23;;;;;;;14.95;7.55;;;0.30;99.90;;;;;;5073415;28;20439;-90
2024/03/04 00:53:49;;;;;;;12.85;6.70;;;0.30;99.90;;;;;;5073422;28;20073;-91
2024/03/04 00:56:16;;;;;;;15.27;7.88;;;0.30;99.90;;;;;;5073078;28;20028;-90
2024/03/04 00:58:42;;;;;;;11.10;6.70;;;0.30;99.90;;;;;;5073388;28;20107;-91
2024/03/04 01:01:08;;;;;;;14.55;6.88;;;0.30;99.90;;;;;;5073191;28;20171;-91
2024/03/04 01:03:34;;;;;;;21.58;8.57;;;0.30;99.90;;;;;;5073399;28;20166;-91
2024/03/04 01:06:00;;;;;;;12.27;6.60;;;0.20;99.90;;;;;;5073201;28;20480;-91
2024/03/04 01:08:26;;;;;;;11.95;6.63;;;0.20;99.90;;;;;;5073277;28;20485;-92
2024/03/04 01:10:53;;;;;;;14.02;6.95;;;0.20;99.90;;;;;;5073808;28;20032;-91
2024/03/04 01:13:22;;;;;;;11.02;6.60;;;0.20;99.90;;;;;;5072996;28;20112;-90
2024/03/04 01:15:48;;;;;;;14.10;6.75;;;0.10;99.90;;;;;;5073010;28;20044;-91
2024/03/04 01:18:14;;;;;;;12.98;6.85;;;0.10;99.90;;;;;;5073018;28;20086;-91
2024/03/04 01:20:40;;;;;;;11.70;6.93;;;0.10;99.90;;;;;;5073411;28;20115;-91
2024/03/04 01:23:08;;;;;;;10.77;6.30;;;0.10;99.90;;;;;;5073316;28;20031;-91
2024/03/04 01:25:33;;;;;;;12.23;6.40;;;0.00;99.90;;;;;;5073168;28;20095;-90
2024/03/04 01:27:59;;;;;;;12.57;6.50;;;0.00;99.90;;;;;;5074306;28;20063;-91
2024/03/04 01:30:26;;;;;;;15.38;8.27;;;0.00;99.90;;;;;;5079399;28;20059;-91
2024/03/04 01:32:52;;;;;;;12.40;6.78;;;0.00;99.90;;;;;;5074319;28;20036;-91
2024/03/04 01:35:18;;;;;;;11.60;6.43;;;0.00;99.90;;;;;;5067132;28;20044;-90
2024/03/04 01:37:46;;;;;;;11.77;6.22;;;-0.10;99.90;;;;;;5053534;28;20020;-92
2024/03/04 01:40:13;;;;;;;12.80;6.60;;;-0.10;99.90;;;;;;5053733;28;20056;-92
2024/03/04 01:42:42;;;;;;;11.57;6.30;;;-0.10;99.90;;;;;;5052423;28;20044;-92
2024/03/04 01:45:23;;;;;;;14.00;6.03;;;-0.10;99.90;;;;;;5053945;28;20021;-92
2024/03/04 01:47:51;;;;;;;12.45;6.22;;;-0.20;99.90;;;;;;5052375;28;20039;-92
2024/03/04 01:50:18;;;;;;;9.68;5.38;;;-0.20;99.90;;;;;;5052664;28;20104;-91
2024/03/04 01:52:44;;;;;;;10.85;5.50;;;-0.20;99.90;;;;;;5052359;28;20091;-91
2024/03/04 01:55:10;;;;;;;12.05;5.68;;;-0.30;99.90;;;;;;5052795;28;20033;-91
2024/03/04 01:57:37;;;;;;;12.07;6.07;;;-0.30;99.90;;;;;;5052524;28;20025;-91
2024/03/04 02:00:11;;;;;;;12.02;5.47;;;-0.30;99.90;;;;;;5053018;28;20021;-89
2024/03/04 02:02:40;;;;;;;10.05;5.05;;;-0.30;99.90;;;;;;5055703;28;20113;-91
2024/03/04 02:05:10;;;;;;;9.65;5.60;;;-0.40;99.90;;;;;;5055766;28;20083;-91
2024/03/04 02:07:38;;;;;;;14.03;5.97;;;-0.40;99.90;;;;;;5054048;28;20501;-91
2024/03/04 02:10:09;;;;;;;10.77;5.47;;;-0.40;99.90;;;;;;5052635;28;20070;-91
2024/03/04 02:12:36;;;;;;;10.95;5.60;;;-0.40;99.90;;;;;;5052703;28;20474;-91
2024/03/04 02:15:03;;;;;;;10.57;5.68;;;-0.40;99.90;;;;;;5052423;28;20025;-92
2024/03/04 02:17:29;;;;;;;8.68;5.32;;;-0.40;99.90;;;;;;5052561;28;20499;-92
2024/03/04 02:20:09;;;;;;;11.82;5.43;;;-0.50;99.90;;;;;;5052766;28;20406;-92
2024/03/04 02:22:35;;;;;;;9.85;5.85;;;-0.50;99.90;;;;;;5052587;28;20110;-91
2024/03/04 02:25:00;;;;;;;11.40;5.93;;;-0.50;99.90;;;;;;5053104;28;20029;-91
2024/03/04 02:27:26;;;;;;;9.85;6.38;;;-0.60;99.90;;;;;;5059613;28;20281;-91
2024/03/04 02:29:52;;;;;;;11.77;6.65;;;-0.60;99.90;;;;;;5071161;28;20036;-91
2024/03/04 02:32:19;;;;;;;13.98;5.88;;;-0.60;99.90;;;;;;5065235;28;20517;-91
2024/03/04 02:34:45;;;;;;;13.10;6.22;;;-0.60;99.90;;;;;;5069282;28;20110;-91
2024/03/04 02:37:12;;;;;;;13.20;6.10;;;-0.70;99.90;;;;;;5069334;28;20025;-91
2024/03/04 02:39:39;;;;;;;11.75;5.63;;;-0.70;99.90;;;;;;5061944;28;20064;-90
2024/03/04 02:42:05;;;;;;;10.30;6.20;;;-0.70;99.90;;;;;;5073392;28;20071;-90
2024/03/04 02:44:32;;;;;;;13.77;7.50;;;-0.70;99.90;;;;;;5055315;28;20025;-91
2024/03/04 02:46:58;;;;;;;11.60;5.65;;;-0.80;99.90;;;;;;5052992;28;20056;-91
2024/03/04 02:49:24;;;;;;;15.40;6.50;;;-0.70;99.90;;;;;;5053534;28;20021;-91
2024/03/04 02:51:55;;;;;;;9.43;5.93;;;-0.80;99.90;;;;;;5053233;28;20033;-91
2024/03/04 02:54:21;;;;;;;12.10;6.00;;;-0.80;99.90;;;;;;5055133;28;20029;-91
2024/03/04 02:56:47;;;;;;;9.95;6.10;;;-0.80;99.90;;;;;;5059198;28;20116;-90
2024/03/04 02:59:13;;;;;;;16.00;6.55;;;-0.80;99.90;;;;;;5056642;28;20021;-90
2024/03/04 03:01:39;;;;;;;14.38;6.55;;;-0.80;99.90;;;;;;5056243;28;20068;-90
2024/03/04 03:04:05;;;;;;;11.13;6.05;;;-0.80;99.90;;;;;;5056646;28;20029;-91
2024/03/04 03:06:32;;;;;;;15.50;7.25;;;-0.90;99.90;;;;;;5058352;28;20025;-90
2024/03/04 03:08:57;;;;;;;12.68;7.00;;;-0.90;99.90;;;;;;5059563;28;20066;-90
2024/03/04 03:11:23;;;;;;;13.95;6.93;;;-0.90;99.90;;;;;;5064082;28;20021;-89
2024/03/04 03:13:49;;;;;;;14.80;7.20;;;-0.90;99.90;;;;;;5078180;28;20068;-88
2024/03/04 03:16:19;;;;;;;12.07;6.43;;;-1.00;99.90;;;;;;5075718;28;20536;-90
2024/03/04 03:18:45;;;;;;;;;;;-0.90;99.90;;;;;;5075010;28;20025;-89
2024/03/04 03:21:12;;;;;;;13.57;6.63;;;-1.00;99.90;;;;;;5070387;28;19982;-90
2024/03/04 03:23:41;;;;;;;13.57;6.97;;;-1.10;99.90;;;;;;5062844;28;20013;-91
2024/03/04 03:26:07;;;;;;;13.82;7.43;;;-1.00;99.90;;;;;;5067467;28;20040;-90
2024/03/04 03:28:32;;;;;;;13.95;7.55;;;-1.00;99.90;;;;;;5056813;28;20048;-90
2024/03/04 03:30:58;;;;;;;14.60;6.80;;;-1.10;99.90;;;;;;5056458;28;20053;-90
2024/03/04 03:33:24;;;;;;;17.05;7.13;;;-1.10;99.90;;;;;;5057306;28;20292;-90
2024/03/04 03:35:50;;;;;;;14.77;6.88;;;-1.10;99.90;;;;;;5056882;28;20017;-90
2024/03/04 03:38:15;;;;;;;13.35;6.90;;;-1.10;99.90;;;;;;5055773;28;20371;-90
2024/03/04 03:40:42;;;;;;;11.52;6.13;;;-1.20;99.90;;;;;;5056185;28;20044;-90
2024/03/04 03:43:08;;;;;;;13.23;6.15;;;-1.20;99.90;;;;;;5055103;28;20051;-91
2024/03/04 03:45:36;;;;;;;12.52;6.15;;;-1.20;99.90;;;;;;5055159;28;20017;-90
2024/03/04 03:48:01;;;;;;;13.00;6.65;;;-1.20;99.90;;;;;;5055882;28;20085;-90
2024/03/04 03:50:27;;;;;;;11.63;5.75;;;-1.20;99.90;;;;;;5054991;28;20060;-90
2024/03/04 03:52:53;;;;;;;13.07;6.85;;;-1.20;99.90;;;;;;5055200;28;20055;-90
2024/03/04 03:55:19;;;;;;;12.30;6.13;;;-1.20;99.90;;;;;;5054725;28;20089;-91
2024/03/04 03:57:44;;;;;;;12.32;6.25;;;-1.30;99.90;;;;;;5054768;28;20029;-90
2024/03/04 04:00:10;;;;;;;13.23;6.28;;;-1.30;99.90;;;;;;5056150;28;20347;-90
2024/03/04 04:02:36;;;;;;;12.07;6.10;;;-1.30;99.90;;;;;;5054647;28;20037;-90
2024/03/04 04:05:03;;;;;;;17.20;6.75;;;-1.30;99.90;;;;;;5054350;28;20021;-90
2024/03/04 04:07:28;;;;;;;12.77;6.05;;;-1.30;99.90;;;;;;5055183;28;20036;-90
2024/03/04 04:09:54;;;;;;;13.43;6.85;;;-1.40;99.90;;;;;;5055847;28;20021;-90
2024/03/04 04:12:20;;;;;;;13.30;7.35;;;-1.40;99.90;;;;;;5055485;28;20033;-91
2024/03/04 04:14:45;;;;;;;11.50;6.30;;;-1.40;99.90;;;;;;5055544;28;20025;-91
2024/03/04 04:17:12;;;;;;;16.38;6.70;;;-1.40;99.90;;;;;;5055401;28;20063;-90
2024/03/04 04:19:39;;;;;;;13.88;7.03;;;-1.40;99.90;;;;;;5055208;28;20053;-90
2024/03/04 04:22:05;;;;;;;14.93;6.63;;;-1.50;99.90;;;;;;5055665;28;20056;-91
2024/03/04 04:24:31;;;;;;;14.95;7.57;;;-1.50;99.90;;;;;;5054135;28;20064;-90
2024/03/04 04:26:57;;;;;;;15.57;6.68;;;-1.50;99.90;;;;;;5055320;28;20025;-91
2024/03/04 04:29:23;;;;;;;11.73;6.45;;;-1.50;99.90;;;;;;5054154;28;20024;-89
2024/03/04 04:31:49;;;;;;;14.27;6.50;;;-1.50;99.90;;;;;;5053984;28;20540;-90
2024/03/04 04:34:14;;;;;;;12.90;6.68;;;-1.60;99.90;;;;;;5054077;28;20075;-91
2024/03/04 04:36:50;;;;;;;15.48;6.32;;;-1.50;99.90;;;;;;5053824;28;20097;-89
2024/03/04 04:39:16;;;;;;;12.13;6.22;;;-1.60;99.90;;;;;;5054631;28;20045;-91
2024/03/04 04:41:42;;;;;;;16.30;6.53;;;-1.60;99.90;;;;;;5054958;28;20055;-90
2024/03/04 04:44:08;;;;;;;13.38;6.72;;;-1.60;99.90;;;;;;5055028;28;20033;-90
2024/03/04 04:46:34;;;;;;;19.05;8.13;;;-1.70;99.90;;;;;;5053965;28;20078;-91
2024/03/04 04:48:59;;;;;;;15.00;7.25;;;-1.60;99.90;;;;;;5054579;28;20029;-89
2024/03/04 04:51:25;;;;;;;19.25;6.75;;;-1.70;99.90;;;;;;5054071;28;20028;-91
2024/03/04 04:53:51;;;;;;;13.57;6.38;;;-1.70;99.90;;;;;;5053843;28;20021;-90
2024/03/04 04:56:17;;;;;;;14.07;7.05;;;-1.80;99.90;;;;;;5059472;28;20024;-89
2024/03/04 04:58:43;;;;;;;15.68;6.68;;;-1.70;99.90;;;;;;5073658;28;20036;-88
2024/03/04 05:01:09;;;;;;;15.95;7.18;;;-1.80;99.90;;;;;;5074708;28;20123;-89
2024/03/04 05:03:35;;;;;;;14.48;7.32;;;-1.80;99.90;;;;;;5074728;28;20059;-89
2024/03/04 05:06:01;;;;;;;13.15;6.80;;;-1.90;99.90;;;;;;5073303;28;20070;-90
2024/03/04 05:08:27;;;;;;;17.85;7.20;;;-1.90;99.90;;;;;;5074520;28;20028;-89
2024/03/04 05:10:56;;;;;;;18.02;7.97;;;-1.90;99.90;;;;;;5074568;28;20052;-90
2024/03/04 05:13:22;;;;;;;16.50;7.45;;;-1.90;99.90;;;;;;5073693;28;20431;-90
2024/03/04 05:15:47;;;;;;;16.10;7.47;;;-1.90;99.90;;;;;;5074355;28;20035;-90
2024/03/04 05:18:15;;;;;;;15.32;8.23;;;-1.90;99.90;;;;;;5072338;28;20077;-91
2024/03/04 05:20:41;;;;;;;15.15;7.88;;;-2.00;99.90;;;;;;5074519;28;20146;-90
2024/03/04 05:23:06;;;;;;;14.02;7.43;;;-2.00;99.90;;;;;;5084753;28;20561;-90
2024/03/04 05:25:32;;;;;;;17.08;7.28;;;-2.00;99.90;;;;;;5083574;28;20104;-90
2024/03/04 05:27:58;;;;;;;15.32;7.72;;;-2.00;99.90;;;;;;5074097;28;20060;-90
2024/03/04 05:30:23;;;;;;;17.02;7.35;;;-2.00;99.90;;;;;;5073455;28;20033;-90
2024/03/04 05:32:49;;;;;;;14.88;7.22;;;-2.00;99.90;;;;;;5074095;28;20032;-90
2024/03/04 05:35:15;;;;;;;15.70;7.70;;;-2.00;99.90;;;;;;5074366;28;20027;-90
2024/03/04 05:37:41;;;;;;;13.23;7.13;;;-2.10;99.90;;;;;;5073987;28;20137;-90
2024/03/04 05:40:11;;;;;;;17.48;7.45;;;-2.10;99.90;;;;;;5073869;28;20067;-91
2024/03/04 05:42:39;;;;;;;13.95;7.07;;;-2.10;99.90;;;;;;5073895;28;20041;-90
2024/03/04 05:45:08;;;;;;;12.80;6.57;;;-2.10;99.90;;;;;;5074969;28;20029;-87
2024/03/04 05:47:34;;;;;;;13.52;5.80;;;-2.10;99.90;;;;;;5075249;28;20029;-90
2024/03/04 05:49:59;;;;;;;15.57;6.35;;;-2.10;99.90;;;;;;5074911;28;20039;-90
2024/03/04 05:52:25;;;;;;;14.82;6.40;;;-2.10;99.90;;;;;;5075211;28;20037;-90
2024/03/04 05:54:51;;;;;;;19.48;7.18;;;-2.10;99.90;;;;;;5074373;28;20031;-89
2024/03/04 05:57:17;;;;;;;14.73;6.63;;;-2.10;99.90;;;;;;5074429;28;20028;-90
2024/03/04 05:59:43;;;;;;;23.75;8.60;;;-2.10;99.90;;;;;;5075179;28;20023;-90
2024/03/04 06:02:09;;;;;;;16.13;6.80;;;-2.10;99.90;;;;;;5075183;28;20029;-90
2024/03/04 06:04:35;;;;;;;13.18;6.82;;;-2.20;99.90;;;;;;5075212;28;20088;-90
2024/03/04 06:07:01;;;;;;;15.25;7.13;;;-2.20;99.90;;;;;;5075993;28;20032;-90
2024/03/04 06:09:27;;;;;;;15.52;6.75;;;-2.20;99.90;;;;;;5073571;28;20070;-89
2024/03/04 06:11:52;;;;;;;15.00;7.28;;;-2.20;99.90;;;;;;5076235;28;20032;-91
2024/03/04 06:14:18;;;;;;;13.15;6.10;;;-2.20;99.90;;;;;;5075331;28;20029;-90
2024/03/04 06:16:45;;;;;;;9.73;5.60;;;-2.20;99.90;;;;;;5074772;28;20043;-91
2024/03/04 06:19:10;;;;;;;13.82;5.38;;;-2.10;99.90;;;;;;5075782;28;20050;-91
2024/03/04 06:21:36;;;;;;;10.25;5.97;;;-2.10;99.90;;;;;;5075712;28;20090;-91
2024/03/04 06:24:03;;;;;;;11.93;6.53;;;-2.10;99.90;;;;;;5074743;28;20066;-90
2024/03/04 06:26:28;;;;;;;12.45;6.80;;;-2.10;99.90;;;;;;5077668;28;20041;-90
2024/03/04 06:28:54;;;;;;;12.73;5.80;;;-2.10;99.90;;;;;;5082416;28;20023;-91
2024/03/04 06:31:20;;;;;;;13.15;6.63;;;-2.20;99.90;;;;;;5097796;28;20077;-88
2024/03/04 06:33:45;;;;;;;14.18;6.15;;;-2.20;99.90;;;;;;5099652;28;20050;-89
2024/03/04 06:36:11;;;;;;;13.05;5.97;;;-2.20;99.90;;;;;;5099040;28;20048;-88
2024/03/04 06:38:39;;;;;;;12.45;6.57;;;-2.30;99.90;;;;;;5094589;28;20039;-85
2024/03/04 06:41:08;;;;;;;20.35;6.93;;;-2.30;99.90;;;;;;5083386;28;20089;-87
2024/03/04 06:43:33;;;;;;;18.25;7.93;;;-2.30;99.90;;;;;;5086567;28;20024;-89
2024/03/04 06:46:01;;;;;;;14.75;7.13;;;-2.30;99.90;;;;;;5079949;28;20017;-89
2024/03/04 06:48:26;;;;;;;16.05;7.28;;;-2.40;99.90;;;;;;5089827;28;20127;-87
2024/03/04 06:50:52;;;;;;;16.30;7.32;;;-2.30;99.90;;;;;;5091560;28;20017;-84
2024/03/04 06:53:18;;;;;;;17.20;7.25;;;-2.30;99.90;;;;;;5089022;28;20021;-87
2024/03/04 06:55:43;;;;;;;17.08;7.22;;;-2.30;99.90;;;;;;5090369;28;20023;-86
2024/03/04 06:58:09;;;;;;;16.90;7.43;;;-2.30;99.90;;;;;;5090077;28;20013;-84
2024/03/04 07:00:35;;;;;;;23.80;8.10;;;-2.40;99.90;;;;;;5091842;28;20044;-84
2024/03/04 07:03:00;;;;;;;17.73;7.13;;;-2.40;99.90;;;;;;5085517;28;20037;-88
2024/03/04 07:05:26;;;;;;;17.55;8.50;;;-2.40;99.90;;;;;;5089575;28;20040;-88
2024/03/04 07:07:52;;;;;;;17.70;7.35;;;-2.40;99.90;;;;;;5083005;28;20067;-90
2024/03/04 07:10:18;;;;;;;17.20;8.15;;;-2.40;99.90;;;;;;5083869;28;20033;-88
2024/03/04 07:12:43;;;;;;;13.60;6.97;;;-2.40;99.90;;;;;;5084428;28;20031;-89
2024/03/04 07:15:09;;;;;;;14.93;7.53;;;-2.40;99.90;;;;;;5087816;28;20058;-89
2024/03/04 07:17:35;;;;;;;20.63;8.18;;;-2.40;99.90;;;;;;5077161;28;20040;-90
2024/03/04 07:20:01;;;;;;;17.15;7.45;;;-2.40;99.90;;;;;;5086180;28;20015;-90
2024/03/04 07:22:26;;;;;;;16.98;8.40;;;-2.40;99.90;;;;;;5080163;28;20021;-90
2024/03/04 07:24:52;;;;;;;19.65;8.43;;;-2.40;99.90;;;;;;5084207;28;20020;-89
2024/03/04 07:27:18;;;;;;;18.27;7.35;;;-2.40;99.90;;;;;;5080353;28;20028;-90
2024/03/04 07:29:43;;;;;;;15.10;7.93;;;-2.40;99.90;;;;;;5073265;28;20081;-89
2024/03/04 07:32:09;;;;;;;19.38;8.38;;;-2.50;99.90;;;;;;5075872;28;20049;-88
2024/03/04 07:34:34;;;;;;;18.33;7.45;;;-2.40;99.90;;;;;;5074570;28;20031;-88
2024/03/04 07:37:00;;;;;;;16.60;7.40;;;-2.40;99.90;;;;;;5069344;28;20016;-88
2024/03/04 07:39:26;;;;;;;23.40;7.97;;;-2.50;99.90;;;;;;5070313;28;20048;-89
2024/03/04 07:41:51;;;;;;;15.43;9.15;;;-2.50;99.90;;;;;;5068418;28;20068;-89
2024/03/04 07:44:20;;;;;;;21.67;8.40;;;-2.40;99.90;;;;;;5067090;28;20035;-88
2024/03/04 07:46:47;;;;;;;16.65;7.97;;;-2.40;99.90;;;;;;5070605;28;20024;-88
2024/03/04 07:49:13;;;;;;;19.88;8.35;;;-2.40;99.90;;;;;;5069440;28;20375;-90
2024/03/04 07:51:39;;;;;;;17.40;7.45;;;-2.40;99.90;;;;;;5062296;28;20509;-88
2024/03/04 07:54:05;;;;;;;17.67;8.25;;;-2.30;99.90;;;;;;5069248;28;20033;-89
2024/03/04 07:56:33;;;;;;;26.73;8.13;;;-2.30;99.90;;;;;;5078167;28;20025;-91
2024/03/04 07:58:59;;;;;;;20.33;8.82;;;-2.30;99.90;;;;;;5068551;28;20031;-89
2024/03/04 08:01:25;;;;;;;20.83;8.57;;;-2.30;99.90;;;;;;5069718;28;20028;-90
2024/03/04 08:03:51;;;;;;;21.13;8.95;;;-2.20;99.90;;;;;;5064551;28;20493;-89
2024/03/04 08:06:16;;;;;;;26.90;10.55;;;-2.10;99.90;;;;;;5066910;28;20025;-91
2024/03/04 08:08:44;;;;;;;21.42;10.50;;;-1.90;99.90;;;;;;5067916;28;20028;-90
2024/03/04 08:11:10;;;;;;;31.15;11.25;;;-1.70;99.90;;;;;;5066459;28;20072;-92
2024/03/04 08:13:36;;;;;;;30.67;13.65;;;-1.50;99.90;;;;;;5064933;28;20017;-90
2024/03/04 08:16:01;;;;;;;33.03;12.18;;;-1.30;99.90;;;;;;5073075;28;20173;-90
2024/03/04 08:18:28;;;;;;;29.40;11.70;;;-1.10;99.90;;;;;;5073614;28;20017;-90
2024/03/04 08:20:54;;;;;;;29.23;12.48;;;-0.80;99.90;;;;;;5065170;28;20033;-92
2024/03/04 08:23:20;;;;;;;24.52;12.40;;;-0.60;99.90;;;;;;5067735;28;20088;-91
2024/03/04 08:25:46;;;;;;;27.63;11.32;;;-0.40;99.90;;;;;;5072248;28;20031;-89
2024/03/04 08:28:11;;;;;;;27.67;11.52;;;-0.30;99.90;;;;;;5072420;28;20040;-90
2024/03/04 08:30:37;;;;;;;20.10;9.00;;;-0.10;99.90;;;;;;5066903;28;20138;-92
2024/03/04 08:33:04;;;;;;;24.85;10.10;;;0.10;99.90;;;;;;5063507;28;20025;-90
2024/03/04 08:35:30;;;;;;;20.50;9.70;;;0.20;99.90;;;;;;5057889;28;20057;-93
2024/03/04 08:37:56;;;;;;;25.30;10.23;;;0.30;99.90;;;;;;5060049;28;20044;-92
2024/03/04 08:40:21;;;;;;;27.95;11.10;;;0.40;99.90;;;;;;5067098;28;20048;-91
2024/03/04 08:42:47;;;;;;;36.00;13.25;;;0.50;99.90;;;;;;5064658;28;20037;-90
2024/03/04 08:45:16;;;;;;;48.53;19.48;;;0.50;99.90;;;;;;5070148;28;20439;-91
2024/03/04 08:47:42;;;;;;;51.65;21.08;;;0.50;99.90;;;;;;5069346;28;20037;-91
2024/03/04 08:50:08;;;;;;;49.88;18.15;;;0.60;99.90;;;;;;5056089;28;20036;-90
2024/03/04 08:52:35;;;;;;;41.78;18.40;;;0.60;99.90;;;;;;5067728;28;20021;-92
2024/03/04 08:55:00;;;;;;;43.50;16.45;;;0.60;99.90;;;;;;5067648;28;20048;-91
2024/03/04 08:57:26;;;;;;;33.20;15.13;;;0.60;99.90;;;;;;5061019;28;20478;-92
2024/03/04 08:59:52;;;;;;;41.40;16.52;;;0.60;99.90;;;;;;5054526;28;20683;-89
2024/03/04 09:02:18;;;;;;;40.67;17.02;;;0.70;99.90;;;;;;5060771;28;20033;-90
2024/03/04 09:04:49;;;;;;;30.00;13.50;;;0.70;99.90;;;;;;5073950;28;20047;-91
2024/03/04 09:07:15;;;;;;;;;;;0.70;99.90;;;;;;5070041;28;20021;-86
2024/03/04 09:09:41;;;;;;;29.13;12.35;;;0.80;99.90;;;;;;5073142;28;19909;-90
2024/03/04 09:12:08;;;;;;;36.53;13.38;;;0.80;99.90;;;;;;5069620;28;20022;-88
2024/03/04 09:14:34;;;;;;;32.67;13.25;;;0.80;99.90;;;;;;5063423;28;20025;-89
2024/03/04 09:17:00;;;;;;;31.58;13.77;;;0.80;99.90;;;;;;5064082;28;20048;-90
2024/03/04 09:19:26;;;;;;;41.35;13.85;;;0.90;99.90;;;;;;5062459;28;20107;-90
2024/03/04 09:21:52;;;;;;;32.50;12.43;;;0.90;99.90;;;;;;5062873;28;20123;-89
2024/03/04 09:24:18;;;;;;;35.72;13.93;;;1.00;99.90;;;;;;5061913;28;20043;-90
2024/03/04 09:26:47;;;;;;;32.83;13.52;;;1.00;99.90;;;;;;5065544;28;20024;-89
2024/03/04 09:29:13;;;;;;;29.15;12.95;;;1.10;99.90;;;;;;5056965;28;20053;-89
2024/03/04 09:31:39;;;;;;;28.98;13.00;;;1.10;99.90;;;;;;5056833;28;20075;-93
2024/03/04 09:34:05;;;;;;;33.75;13.35;;;1.20;99.90;;;;;;5065558;28;20477;-90
2024/03/04 09:36:31;;;;;;;27.95;11.65;;;1.30;99.90;;;;;;5061487;28;20029;-90
2024/03/04 09:38:57;;;;;;;30.95;13.43;;;1.30;99.90;;;;;;5054529;28;20033;-92
2024/03/04 09:41:23;;;;;;;27.80;12.38;;;1.40;99.90;;;;;;5053942;28;20044;-90
2024/03/04 09:43:49;;;;;;;26.50;12.18;;;1.50;99.90;;;;;;5054759;28;20039;-92
2024/03/04 09:46:19;;;;;;;29.70;13.50;;;1.60;99.90;;;;;;5066884;28;20021;-94
2024/03/04 09:48:48;;;;;;;27.75;12.57;;;1.70;99.90;;;;;;5066947;28;20035;-94
2024/03/04 09:51:15;;;;;;;31.85;13.07;;;1.90;99.90;;;;;;5073003;28;20052;-90
2024/03/04 09:53:42;;;;;;;29.17;13.50;;;2.10;99.90;;;;;;5051001;28;20032;-92
2024/03/04 09:56:11;;;;;;;26.02;12.63;;;2.30;99.90;;;;;;5055154;28;20032;-90
2024/03/04 09:58:36;;;;;;;31.98;15.35;;;2.50;99.90;;;;;;5062741;28;20035;-92
2024/03/04 10:01:03;;;;;;;35.50;15.63;;;2.80;99.90;;;;;;5074210;28;20032;-90
2024/03/04 10:03:29;;;;;;;30.52;13.65;;;3.10;99.90;;;;;;5073883;28;20104;-92
2024/03/04 10:05:56;;;;;;;25.70;13.82;;;3.40;99.90;;;;;;5073709;28;20048;-88
2024/03/04 10:08:23;;;;;;;22.58;10.70;;;3.70;99.90;;;;;;5061212;28;20382;-90
2024/03/04 10:10:50;;;;;;;24.45;11.13;;;4.10;99.90;;;;;;5053851;28;20024;-91
2024/03/04 10:13:17;;;;;;;22.27;10.88;;;4.40;99.90;;;;;;5055137;28;20021;-93
2024/03/04 10:15:46;;;;;;;17.15;9.02;;;4.80;99.90;;;;;;5054354;28;20249;-91
2024/03/04 10:18:13;;;;;;;18.25;9.20;;;5.20;99.90;;;;;;5067596;28;20078;-93
2024/03/04 10:20:39;;;;;;;16.52;8.50;;;5.50;99.90;;;;;;5057062;28;20033;-92
2024/03/04 10:23:06;;;;;;;15.02;8.55;;;5.90;99.90;;;;;;5053797;28;20071;-92
2024/03/04 10:25:32;;;;;;;14.77;7.88;;;6.30;99.90;;;;;;5055700;28;20040;-92
2024/03/04 10:27:57;;;;;;;13.95;8.15;;;6.60;99.90;;;;;;5060694;28;20108;-91
2024/03/04 10:30:27;;;;;;;14.60;7.07;;;6.90;99.90;;;;;;5066926;28;20044;-94
2024/03/04 10:32:57;;;;;;;13.32;6.72;;;7.20;99.90;;;;;;5080045;28;20282;-95
2024/03/04 10:35:27;;;;;;;13.20;6.57;;;7.50;99.90;;;;;;5079822;28;20103;-95
2024/03/04 10:38:02;;;;;;;13.20;6.55;;;7.80;99.90;;;;;;5079173;28;20029;-95
2024/03/04 10:40:29;;;;;;;11.88;6.00;;;8.00;99.90;;;;;;5078304;28;20103;-93
2024/03/04 10:43:00;;;;;;;7.63;4.82;;;8.10;99.90;;;;;;5077641;28;20121;-93
2024/03/04 10:45:34;;;;;;;9.18;4.38;;;8.20;99.90;;;;;;5075523;28;20035;-95
2024/03/04 10:48:02;;;;;;;11.15;5.13;;;8.20;99.90;;;;;;5073297;28;20032;-93
2024/03/04 10:50:29;;;;;;;10.85;5.13;;;8.30;99.90;;;;;;5074369;28;20048;-95
2024/03/04 10:52:55;;;;;;;8.77;4.45;;;8.50;99.90;;;;;;5054890;22;20057;-75
2024/03/04 10:55:21;;;;;;;6.70;4.30;;;8.70;99.90;;;;;;5003898;28;20021;-79
2024/03/04 10:57:52;;;;;;;6.45;4.78;;;8.70;99.90;;;;;;4978629;28;20052;-79
2024/03/04 11:02:59;;;;;;;8.73;4.05;;;9.00;99.90;;;;;;5004361;28;20070;-80
2024/03/04 11:05:27;;;;;;;6.38;3.15;;;9.40;99.90;;;;;;4976781;28;20161;-80
2024/03/04 11:07:57;;;;;;;7.32;3.45;;;9.60;99.90;;;;;;4988471;28;20048;-77
2024/03/04 11:10:27;;;;;;;;;;;9.80;99.90;;;;;;4992452;28;20115;-76
2024/03/04 11:12:59;;;;;;;5.35;2.17;;;10.00;99.90;;;;;;5010806;28;20370;-76
2024/03/04 11:15:28;;;;;;;3.63;1.60;;;10.10;99.90;;;;;;5011102;28;20357;-76
2024/03/04 11:17:59;;;;;;;2.90;1.70;;;10.20;99.90;;;;;;5009344;28;20022;-77
2024/03/04 11:20:28;;;;;;;6.72;2.28;;;10.30;99.90;;;;;;4998527;28;20032;-79
2024/03/04 11:22:54;;;;;;;2.53;1.55;;;10.40;99.90;;;;;;5006309;28;20410;-79
2024/03/04 11:25:20;;;;;;;7.13;2.08;;;10.50;99.90;;;;;;5012743;28;20125;-79
2024/03/04 11:27:48;;;;;;;3.05;1.50;;;10.60;99.90;;;;;;5013058;28;20044;-79
2024/03/04 11:30:14;;;;;;;3.58;1.50;;;10.50;99.90;;;;;;4995546;28;20026;-79
2024/03/04 11:32:40;;;;;;;4.80;1.77;;;10.40;99.90;;;;;;5012830;28;20033;-79
2024/03/04 11:35:10;;;;;;;3.55;1.95;;;10.20;99.90;;;;;;4995130;28;20454;-79
2024/03/04 11:37:53;;;;;;;5.82;1.83;;;10.10;99.90;;;;;;5014933;28;20480;-79
2024/03/04 11:40:23;;;;;;;3.10;1.92;;;10.20;99.90;;;;;;5013773;28;20026;-79
2024/03/04 11:42:50;;;;;;;3.08;1.80;;;10.10;99.90;;;;;;5012591;28;20038;-79
2024/03/04 11:45:21;;;;;;;3.55;1.77;;;10.00;99.90;;;;;;5014488;28;20047;-79
2024/03/04 11:47:48;;;;;;;3.45;2.13;;;9.80;99.90;;;;;;5014066;28;20084;-79
2024/03/04 11:50:43;;;;;;;4.03;1.85;;;9.70;99.90;;;;;;4993649;28;20346;-79
2024/03/04 11:53:23;;;;;;;4.10;1.58;;;9.60;99.90;;;;;;5012237;28;20049;-79
2024/03/04 11:55:51;;;;;;;5.00;1.40;;;9.70;99.90;;;;;;5013275;28;20022;-79
2024/03/04 11:58:18;;;;;;;5.18;1.48;;;10.00;99.90;;;;;;5014250;28;20021;-79
2024/03/04 12:00:44;;;;;;;6.20;1.60;;;10.20;99.90;;;;;;4996520;28;20061;-79
2024/03/04 12:03:11;;;;;;;2.88;1.63;;;10.40;99.70;;;;;;5013959;28;20467;-79
2024/03/04 12:05:38;;;;;;;3.55;1.30;;;10.60;99.30;;;;;;5014486;28;20053;-79
2024/03/04 12:08:04;;;;;;;2.65;1.45;;;10.70;98.50;;;;;;5014200;28;20025;-79
2024/03/04 12:10:30;;;;;;;4.13;1.20;;;11.00;98.10;;;;;;5014326;28;20047;-79
2024/03/04 12:12:57;;;;;;;3.15;1.25;;;11.00;96.60;;;;;;4996959;28;20120;-81
2024/03/04 12:15:23;;;;;;;3.47;1.30;;;10.80;95.20;;;;;;5013696;28;20321;-79
2024/03/04 12:17:49;;;;;;;4.05;1.63;;;10.60;94.90;;;;;;5014270;28;20014;-79
2024/03/04 12:20:14;;;;;;;6.65;1.55;;;10.40;95.30;;;;;;4996366;28;20025;-79
2024/03/04 12:22:40;;;;;;;2.08;1.40;;;10.40;95.70;;;;;;4996351;28;20049;-79
2024/03/04 12:25:08;;;;;;;4.10;1.42;;;10.40;95.80;;;;;;5013735;28;20100;-78
2024/03/04 12:27:35;;;;;;;3.88;1.95;;;10.20;95.60;;;;;;5013439;28;20365;-80
2024/03/04 12:30:17;;;;;;;4.47;1.45;;;10.10;96.10;;;;;;5013865;28;20034;-80
2024/03/04 12:32:50;;;;;;;4.32;1.48;;;10.00;96.40;;;;;;5012060;28;20049;-80
2024/03/04 12:35:25;;;;;;;5.57;1.42;;;9.90;96.70;;;;;;5008456;28;20029;-81
2024/03/04 12:37:56;;;;;;;2.58;1.40;;;9.90;97.20;;;;;;5010422;28;20112;-78
2024/03/04 12:40:23;;;;;;;2.25;1.33;;;9.80;97.20;;;;;;5013460;28;20485;-80